sensor_id;sensor_type;location;lat;lon;timestamp;P1;durP1;ratioP1;P2;durP2;ratioP2
65636;SDS011;52327;42.622;23.316;2022-11-15T00:01:20;3.72;;;2.67;;
65636;SDS011;52327;42.622;23.316;2022-11-15T00:03:45;5.35;;;2.42;;
65636;SDS011;52327;42.622;23.316;2022-11-15T00:06:11;6.30;;;1.98;;
65636;SDS011;52327;42.622;23.316;2022-11-15T00:08:36;2.33;;;1.75;;
65636;SDS011;52327;42.622;23.316;2022-11-15T00:11:02;3.45;;;2.83;;
65636;SDS011;52327;42.622;23.316;2022-11-15T00:13:28;4.82;;;2.75;;
65636;SDS011;52327;42.622;23.316;2022-11-15T00:15:56;2.90;;;1.65;;
65636;SDS011;52327;42.622;23.316;2022-11-15T00:18:23;3.83;;;2.33;;
65636;SDS011;52327;42.622;23.316;2022-11-15T00:20:49;2.72;;;2.15;;
65636;SDS011;52327;42.622;23.316;2022-11-15T00:23:14;1.88;;;1.40;;
65636;SDS011;52327;42.622;23.316;2022-11-15T00:25:39;2.92;;;1.85;;
65636;SDS011;52327;42.622;23.316;2022-11-15T00:28:05;1.63;;;1.48;;
65636;SDS011;52327;42.622;23.316;2022-11-15T00:30:30;2.35;;;1.73;;
65636;SDS011;52327;42.622;23.316;2022-11-15T00:32:56;1.83;;;1.15;;
65636;SDS011;52327;42.622;23.316;2022-11-15T00:35:21;2.38;;;1.42;;
65636;SDS011;52327;42.622;23.316;2022-11-15T00:37:48;1.85;;;1.38;;
65636;SDS011;52327;42.622;23.316;2022-11-15T00:40:14;1.05;;;0.82;;
65636;SDS011;52327;42.622;23.316;2022-11-15T00:42:40;1.25;;;1.15;;
65636;SDS011;52327;42.622;23.316;2022-11-15T00:45:06;1.80;;;1.42;;
65636;SDS011;52327;42.622;23.316;2022-11-15T00:47:32;1.70;;;1.60;;
65636;SDS011;52327;42.622;23.316;2022-11-15T00:49:57;3.53;;;2.08;;
65636;SDS011;52327;42.622;23.316;2022-11-15T00:52:23;2.50;;;2.25;;
65636;SDS011;52327;42.622;23.316;2022-11-15T00:54:48;2.03;;;1.40;;
65636;SDS011;52327;42.622;23.316;2022-11-15T00:57:13;2.00;;;1.02;;
65636;SDS011;52327;42.622;23.316;2022-11-15T00:59:39;4.88;;;2.17;;
65636;SDS011;52327;42.622;23.316;2022-11-15T01:02:04;1.08;;;0.93;;
65636;SDS011;52327;42.622;23.316;2022-11-15T01:04:29;2.13;;;1.95;;
65636;SDS011;52327;42.622;23.316;2022-11-15T01:06:55;1.92;;;1.42;;
65636;SDS011;52327;42.622;23.316;2022-11-15T01:09:23;3.60;;;1.67;;
65636;SDS011;52327;42.622;23.316;2022-11-15T01:11:49;1.92;;;1.20;;
65636;SDS011;52327;42.622;23.316;2022-11-15T01:14:14;4.47;;;1.77;;
65636;SDS011;52327;42.622;23.316;2022-11-15T01:16:40;4.40;;;2.17;;
65636;SDS011;52327;42.622;23.316;2022-11-15T01:19:05;0.80;;;0.80;;
65636;SDS011;52327;42.622;23.316;2022-11-15T01:21:31;3.22;;;1.58;;
65636;SDS011;52327;42.622;23.316;2022-11-15T01:23:56;1.20;;;1.10;;
65636;SDS011;52327;42.622;23.316;2022-11-15T01:26:23;2.38;;;1.58;;
65636;SDS011;52327;42.622;23.316;2022-11-15T01:28:49;1.80;;;1.70;;
65636;SDS011;52327;42.622;23.316;2022-11-15T01:31:16;2.85;;;2.55;;
65636;SDS011;52327;42.622;23.316;2022-11-15T01:33:43;2.13;;;1.55;;
65636;SDS011;52327;42.622;23.316;2022-11-15T01:36:16;2.10;;;1.58;;
65636;SDS011;52327;42.622;23.316;2022-11-15T01:38:44;4.80;;;2.10;;
65636;SDS011;52327;42.622;23.316;2022-11-15T01:41:16;2.03;;;1.48;;
65636;SDS011;52327;42.622;23.316;2022-11-15T01:43:45;1.63;;;1.42;;
65636;SDS011;52327;42.622;23.316;2022-11-15T01:46:22;6.03;;;2.53;;
65636;SDS011;52327;42.622;23.316;2022-11-15T01:48:49;4.78;;;2.47;;
65636;SDS011;52327;42.622;23.316;2022-11-15T01:51:18;4.18;;;1.92;;
65636;SDS011;52327;42.622;23.316;2022-11-15T01:53:47;4.57;;;3.67;;
65636;SDS011;52327;42.622;23.316;2022-11-15T01:56:18;2.85;;;2.17;;
65636;SDS011;52327;42.622;23.316;2022-11-15T01:58:46;4.38;;;3.08;;
65636;SDS011;52327;42.622;23.316;2022-11-15T02:01:12;3.22;;;1.98;;
65636;SDS011;52327;42.622;23.316;2022-11-15T02:03:43;5.13;;;2.58;;
65636;SDS011;52327;42.622;23.316;2022-11-15T02:06:14;5.55;;;2.83;;
65636;SDS011;52327;42.622;23.316;2022-11-15T02:08:40;4.22;;;2.80;;
65636;SDS011;52327;42.622;23.316;2022-11-15T02:11:09;1.75;;;1.65;;
65636;SDS011;52327;42.622;23.316;2022-11-15T02:13:35;4.53;;;2.35;;
65636;SDS011;52327;42.622;23.316;2022-11-15T02:16:26;1.55;;;1.45;;
65636;SDS011;52327;42.622;23.316;2022-11-15T02:22:16;5.45;;;1.83;;
65636;SDS011;52327;42.622;23.316;2022-11-15T02:33:25;2.95;;;2.22;;
65636;SDS011;52327;42.622;23.316;2022-11-15T02:36:01;2.13;;;1.80;;
65636;SDS011;52327;42.622;23.316;2022-11-15T02:41:20;4.25;;;1.52;;
65636;SDS011;52327;42.622;23.316;2022-11-15T02:43:56;2.60;;;1.83;;
65636;SDS011;52327;42.622;23.316;2022-11-15T02:46:27;2.38;;;1.20;;
65636;SDS011;52327;42.622;23.316;2022-11-15T02:49:18;1.63;;;1.25;;
65636;SDS011;52327;42.622;23.316;2022-11-15T02:51:45;2.03;;;1.58;;
65636;SDS011;52327;42.622;23.316;2022-11-15T02:54:24;3.35;;;1.45;;
65636;SDS011;52327;42.622;23.316;2022-11-15T02:56:53;2.08;;;1.73;;
65636;SDS011;52327;42.622;23.316;2022-11-15T03:04:54;2.90;;;1.63;;
65636;SDS011;52327;42.622;23.316;2022-11-15T03:07:32;2.30;;;2.10;;
65636;SDS011;52327;42.622;23.316;2022-11-15T03:12:55;5.38;;;2.90;;
65636;SDS011;52327;42.622;23.316;2022-11-15T03:15:32;5.72;;;3.35;;
65636;SDS011;52327;42.622;23.316;2022-11-15T03:21:07;4.28;;;2.45;;
65636;SDS011;52327;42.622;23.316;2022-11-15T03:23:36;3.35;;;2.38;;
65636;SDS011;52327;42.622;23.316;2022-11-15T03:26:03;2.35;;;2.05;;
65636;SDS011;52327;42.622;23.316;2022-11-15T03:28:36;2.60;;;2.40;;
65636;SDS011;52327;42.622;23.316;2022-11-15T03:31:06;4.25;;;2.60;;
65636;SDS011;52327;42.622;23.316;2022-11-15T03:33:52;2.95;;;2.40;;
65636;SDS011;52327;42.622;23.316;2022-11-15T03:36:22;3.60;;;2.00;;
65636;SDS011;52327;42.622;23.316;2022-11-15T03:38:49;5.43;;;2.47;;
65636;SDS011;52327;42.622;23.316;2022-11-15T03:41:22;4.65;;;3.08;;
65636;SDS011;52327;42.622;23.316;2022-11-15T03:43:56;6.40;;;3.92;;
65636;SDS011;52327;42.622;23.316;2022-11-15T03:46:33;2.58;;;1.38;;
65636;SDS011;52327;42.622;23.316;2022-11-15T03:49:06;4.70;;;2.85;;
65636;SDS011;52327;42.622;23.316;2022-11-15T03:51:35;5.25;;;2.42;;
65636;SDS011;52327;42.622;23.316;2022-11-15T03:54:02;4.18;;;2.25;;
65636;SDS011;52327;42.622;23.316;2022-11-15T03:56:31;4.75;;;3.25;;
65636;SDS011;52327;42.622;23.316;2022-11-15T03:58:56;5.35;;;3.80;;
65636;SDS011;52327;42.622;23.316;2022-11-15T04:01:22;2.85;;;2.20;;
65636;SDS011;52327;42.622;23.316;2022-11-15T04:03:47;4.53;;;2.38;;
65636;SDS011;52327;42.622;23.316;2022-11-15T04:06:13;1.45;;;1.08;;
65636;SDS011;52327;42.622;23.316;2022-11-15T04:08:38;2.97;;;2.05;;
65636;SDS011;52327;42.622;23.316;2022-11-15T04:11:04;5.15;;;2.75;;
65636;SDS011;52327;42.622;23.316;2022-11-15T04:13:29;3.65;;;2.97;;
65636;SDS011;52327;42.622;23.316;2022-11-15T04:15:55;4.25;;;3.22;;
65636;SDS011;52327;42.622;23.316;2022-11-15T04:18:20;3.70;;;1.75;;
65636;SDS011;52327;42.622;23.316;2022-11-15T04:20:45;1.90;;;1.70;;
65636;SDS011;52327;42.622;23.316;2022-11-15T04:23:29;2.92;;;2.08;;
65636;SDS011;52327;42.622;23.316;2022-11-15T04:26:17;1.90;;;1.80;;
65636;SDS011;52327;42.622;23.316;2022-11-15T04:28:45;2.15;;;1.55;;
65636;SDS011;52327;42.622;23.316;2022-11-15T04:31:29;1.33;;;1.23;;
65636;SDS011;52327;42.622;23.316;2022-11-15T04:33:55;3.42;;;2.00;;
65636;SDS011;52327;42.622;23.316;2022-11-15T04:36:20;3.25;;;2.45;;
65636;SDS011;52327;42.622;23.316;2022-11-15T04:39:04;2.38;;;1.58;;
65636;SDS011;52327;42.622;23.316;2022-11-15T04:41:30;1.38;;;1.27;;
65636;SDS011;52327;42.622;23.316;2022-11-15T04:43:55;3.00;;;1.60;;
65636;SDS011;52327;42.622;23.316;2022-11-15T04:46:21;2.25;;;1.95;;
65636;SDS011;52327;42.622;23.316;2022-11-15T04:48:47;5.82;;;4.30;;
65636;SDS011;52327;42.622;23.316;2022-11-15T04:51:13;7.60;;;3.85;;
65636;SDS011;52327;42.622;23.316;2022-11-15T04:53:38;7.97;;;4.57;;
65636;SDS011;52327;42.622;23.316;2022-11-15T04:56:03;5.18;;;4.53;;
65636;SDS011;52327;42.622;23.316;2022-11-15T04:58:29;7.97;;;6.70;;
65636;SDS011;52327;42.622;23.316;2022-11-15T05:00:54;5.53;;;4.65;;
65636;SDS011;52327;42.622;23.316;2022-11-15T05:03:20;11.23;;;5.97;;
65636;SDS011;52327;42.622;23.316;2022-11-15T05:06:04;4.30;;;2.88;;
65636;SDS011;52327;42.622;23.316;2022-11-15T05:08:30;4.00;;;3.20;;
65636;SDS011;52327;42.622;23.316;2022-11-15T05:10:56;4.65;;;2.72;;
65636;SDS011;52327;42.622;23.316;2022-11-15T05:13:21;2.08;;;1.98;;
65636;SDS011;52327;42.622;23.316;2022-11-15T05:15:47;6.43;;;2.58;;
65636;SDS011;52327;42.622;23.316;2022-11-15T05:18:12;4.85;;;4.05;;
65636;SDS011;52327;42.622;23.316;2022-11-15T05:20:37;6.88;;;5.63;;
65636;SDS011;52327;42.622;23.316;2022-11-15T05:23:03;10.85;;;6.38;;
65636;SDS011;52327;42.622;23.316;2022-11-15T05:25:28;12.73;;;6.28;;
65636;SDS011;52327;42.622;23.316;2022-11-15T05:27:54;8.15;;;6.57;;
65636;SDS011;52327;42.622;23.316;2022-11-15T05:30:19;5.55;;;4.75;;
65636;SDS011;52327;42.622;23.316;2022-11-15T05:32:45;7.25;;;4.93;;
65636;SDS011;52327;42.622;23.316;2022-11-15T05:35:15;5.65;;;4.10;;
65636;SDS011;52327;42.622;23.316;2022-11-15T05:37:46;8.63;;;6.15;;
65636;SDS011;52327;42.622;23.316;2022-11-15T05:40:13;11.98;;;6.85;;
65636;SDS011;52327;42.622;23.316;2022-11-15T05:42:39;10.93;;;7.53;;
65636;SDS011;52327;42.622;23.316;2022-11-15T05:45:05;9.88;;;7.65;;
65636;SDS011;52327;42.622;23.316;2022-11-15T05:47:32;7.53;;;6.75;;
65636;SDS011;52327;42.622;23.316;2022-11-15T05:50:00;14.65;;;7.32;;
65636;SDS011;52327;42.622;23.316;2022-11-15T05:52:27;8.82;;;6.65;;
65636;SDS011;52327;42.622;23.316;2022-11-15T05:54:56;12.20;;;7.28;;
65636;SDS011;52327;42.622;23.316;2022-11-15T05:57:23;14.10;;;7.57;;
65636;SDS011;52327;42.622;23.316;2022-11-15T05:59:49;11.48;;;7.32;;
65636;SDS011;52327;42.622;23.316;2022-11-15T06:02:14;9.15;;;5.10;;
65636;SDS011;52327;42.622;23.316;2022-11-15T06:04:40;9.23;;;5.80;;
65636;SDS011;52327;42.622;23.316;2022-11-15T06:07:05;13.48;;;7.18;;
65636;SDS011;52327;42.622;23.316;2022-11-15T06:09:30;15.60;;;6.75;;
65636;SDS011;52327;42.622;23.316;2022-11-15T06:11:56;13.43;;;8.65;;
65636;SDS011;52327;42.622;23.316;2022-11-15T06:14:21;11.82;;;8.30;;
65636;SDS011;52327;42.622;23.316;2022-11-15T06:16:46;11.15;;;6.85;;
65636;SDS011;52327;42.622;23.316;2022-11-15T06:19:12;12.63;;;6.18;;
65636;SDS011;52327;42.622;23.316;2022-11-15T06:21:37;9.63;;;7.13;;
65636;SDS011;52327;42.622;23.316;2022-11-15T06:24:03;9.38;;;6.55;;
65636;SDS011;52327;42.622;23.316;2022-11-15T06:26:29;6.53;;;4.72;;
65636;SDS011;52327;42.622;23.316;2022-11-15T06:28:55;7.63;;;5.53;;
65636;SDS011;52327;42.622;23.316;2022-11-15T06:31:20;14.30;;;6.97;;
65636;SDS011;52327;42.622;23.316;2022-11-15T06:33:46;6.18;;;3.80;;
65636;SDS011;52327;42.622;23.316;2022-11-15T06:36:12;5.80;;;4.70;;
65636;SDS011;52327;42.622;23.316;2022-11-15T06:41:08;6.72;;;4.72;;
65636;SDS011;52327;42.622;23.316;2022-11-15T06:43:35;9.07;;;5.60;;
65636;SDS011;52327;42.622;23.316;2022-11-15T06:46:02;4.65;;;4.15;;
65636;SDS011;52327;42.622;23.316;2022-11-15T06:48:29;6.47;;;4.40;;
65636;SDS011;52327;42.622;23.316;2022-11-15T06:50:56;13.68;;;7.05;;
65636;SDS011;52327;42.622;23.316;2022-11-15T06:53:23;14.68;;;4.60;;
65636;SDS011;52327;42.622;23.316;2022-11-15T06:55:49;9.10;;;5.68;;
65636;SDS011;52327;42.622;23.316;2022-11-15T06:58:14;7.57;;;5.90;;
65636;SDS011;52327;42.622;23.316;2022-11-15T07:00:40;7.22;;;5.15;;
65636;SDS011;52327;42.622;23.316;2022-11-15T07:03:06;11.20;;;7.22;;
65636;SDS011;52327;42.622;23.316;2022-11-15T07:05:31;17.20;;;7.70;;
65636;SDS011;52327;42.622;23.316;2022-11-15T07:07:57;9.32;;;7.18;;
65636;SDS011;52327;42.622;23.316;2022-11-15T07:10:24;10.25;;;7.63;;
65636;SDS011;52327;42.622;23.316;2022-11-15T07:12:50;12.18;;;8.02;;
65636;SDS011;52327;42.622;23.316;2022-11-15T07:28:59;7.85;;;5.50;;
65636;SDS011;52327;42.622;23.316;2022-11-15T07:31:24;11.70;;;7.53;;
65636;SDS011;52327;42.622;23.316;2022-11-15T07:33:50;11.98;;;8.80;;
65636;SDS011;52327;42.622;23.316;2022-11-15T07:36:15;16.05;;;10.25;;
65636;SDS011;52327;42.622;23.316;2022-11-15T07:38:41;17.92;;;12.45;;
65636;SDS011;52327;42.622;23.316;2022-11-15T07:41:07;14.75;;;9.75;;
65636;SDS011;52327;42.622;23.316;2022-11-15T07:43:32;11.20;;;8.02;;
65636;SDS011;52327;42.622;23.316;2022-11-15T07:45:58;17.60;;;10.85;;
65636;SDS011;52327;42.622;23.316;2022-11-15T07:50:54;16.80;;;9.52;;
65636;SDS011;52327;42.622;23.316;2022-11-15T07:53:19;8.85;;;6.22;;
65636;SDS011;52327;42.622;23.316;2022-11-15T07:55:45;17.45;;;8.48;;
65636;SDS011;52327;42.622;23.316;2022-11-15T07:58:11;19.58;;;9.80;;
65636;SDS011;52327;42.622;23.316;2022-11-15T08:00:38;29.08;;;14.20;;
65636;SDS011;52327;42.622;23.316;2022-11-15T08:03:08;43.63;;;18.20;;
65636;SDS011;52327;42.622;23.316;2022-11-15T08:05:42;15.88;;;9.90;;
65636;SDS011;52327;42.622;23.316;2022-11-15T08:08:10;24.33;;;10.60;;
65636;SDS011;52327;42.622;23.316;2022-11-15T08:10:36;15.25;;;9.35;;
65636;SDS011;52327;42.622;23.316;2022-11-15T08:13:20;14.88;;;8.68;;
65636;SDS011;52327;42.622;23.316;2022-11-15T08:16:21;20.70;;;10.30;;
65636;SDS011;52327;42.622;23.316;2022-11-15T08:18:52;23.52;;;10.32;;
65636;SDS011;52327;42.622;23.316;2022-11-15T08:21:22;17.60;;;10.45;;
65636;SDS011;52327;42.622;23.316;2022-11-15T08:24:04;16.13;;;9.50;;
65636;SDS011;52327;42.622;23.316;2022-11-15T08:26:56;22.00;;;11.13;;
65636;SDS011;52327;42.622;23.316;2022-11-15T08:32:37;35.60;;;13.73;;
65636;SDS011;52327;42.622;23.316;2022-11-15T08:35:20;18.48;;;8.57;;
65636;SDS011;52327;42.622;23.316;2022-11-15T08:38:17;33.47;;;12.05;;
65636;SDS011;52327;42.622;23.316;2022-11-15T08:40:48;14.65;;;9.27;;
65636;SDS011;52327;42.622;23.316;2022-11-15T08:43:18;14.30;;;8.50;;
65636;SDS011;52327;42.622;23.316;2022-11-15T08:45:43;18.23;;;10.05;;
65636;SDS011;52327;42.622;23.316;2022-11-15T08:48:11;22.95;;;10.07;;
65636;SDS011;52327;42.622;23.316;2022-11-15T08:50:37;22.73;;;13.52;;
65636;SDS011;52327;42.622;23.316;2022-11-15T08:53:08;33.10;;;14.02;;
65636;SDS011;52327;42.622;23.316;2022-11-15T08:55:39;31.30;;;14.30;;
65636;SDS011;52327;42.622;23.316;2022-11-15T08:58:16;21.52;;;11.93;;
65636;SDS011;52327;42.622;23.316;2022-11-15T09:03:33;21.02;;;11.27;;
65636;SDS011;52327;42.622;23.316;2022-11-15T09:06:04;23.52;;;10.93;;
65636;SDS011;52327;42.622;23.316;2022-11-15T09:08:32;19.70;;;11.27;;
65636;SDS011;52327;42.622;23.316;2022-11-15T09:11:03;23.80;;;12.88;;
65636;SDS011;52327;42.622;23.316;2022-11-15T09:13:30;23.48;;;12.20;;
65636;SDS011;52327;42.622;23.316;2022-11-15T09:15:59;18.40;;;10.02;;
65636;SDS011;52327;42.622;23.316;2022-11-15T09:18:25;14.40;;;10.00;;
65636;SDS011;52327;42.622;23.316;2022-11-15T09:20:51;25.23;;;12.88;;
65636;SDS011;52327;42.622;23.316;2022-11-15T09:23:19;21.85;;;10.93;;
65636;SDS011;52327;42.622;23.316;2022-11-15T09:25:45;28.25;;;12.65;;
65636;SDS011;52327;42.622;23.316;2022-11-15T09:28:10;25.77;;;12.05;;
65636;SDS011;52327;42.622;23.316;2022-11-15T09:30:35;21.88;;;10.45;;
65636;SDS011;52327;42.622;23.316;2022-11-15T09:33:07;20.45;;;10.02;;
65636;SDS011;52327;42.622;23.316;2022-11-15T09:35:34;17.63;;;9.60;;
65636;SDS011;52327;42.622;23.316;2022-11-15T09:38:00;33.15;;;12.82;;
65636;SDS011;52327;42.622;23.316;2022-11-15T09:40:26;26.73;;;11.30;;
65636;SDS011;52327;42.622;23.316;2022-11-15T09:42:54;20.70;;;11.02;;
65636;SDS011;52327;42.622;23.316;2022-11-15T09:45:28;17.58;;;9.57;;
65636;SDS011;52327;42.622;23.316;2022-11-15T09:50:41;22.20;;;11.88;;
65636;SDS011;52327;42.622;23.316;2022-11-15T09:53:12;29.95;;;12.77;;
65636;SDS011;52327;42.622;23.316;2022-11-15T09:55:44;24.23;;;9.95;;
65636;SDS011;52327;42.622;23.316;2022-11-15T09:58:34;23.98;;;11.65;;
65636;SDS011;52327;42.622;23.316;2022-11-15T10:01:04;23.60;;;12.18;;
65636;SDS011;52327;42.622;23.316;2022-11-15T10:03:36;23.13;;;11.35;;
65636;SDS011;52327;42.622;23.316;2022-11-15T10:06:10;24.13;;;11.68;;
65636;SDS011;52327;42.622;23.316;2022-11-15T10:11:28;26.95;;;13.15;;
65636;SDS011;52327;42.622;23.316;2022-11-15T10:14:17;22.80;;;10.95;;
65636;SDS011;52327;42.622;23.316;2022-11-15T10:21:58;24.80;;;13.05;;
65636;SDS011;52327;42.622;23.316;2022-11-15T10:24:26;24.85;;;12.50;;
65636;SDS011;52327;42.622;23.316;2022-11-15T10:26:53;31.65;;;13.30;;
65636;SDS011;52327;42.622;23.316;2022-11-15T10:29:20;22.67;;;12.85;;
65636;SDS011;52327;42.622;23.316;2022-11-15T10:31:46;27.35;;;16.20;;
65636;SDS011;52327;42.622;23.316;2022-11-15T10:34:13;18.13;;;11.50;;
65636;SDS011;52327;42.622;23.316;2022-11-15T10:36:59;25.08;;;11.40;;
65636;SDS011;52327;42.622;23.316;2022-11-15T10:39:27;22.02;;;12.73;;
65636;SDS011;52327;42.622;23.316;2022-11-15T10:41:53;24.70;;;13.07;;
65636;SDS011;52327;42.622;23.316;2022-11-15T10:44:20;22.20;;;12.80;;
65636;SDS011;52327;42.622;23.316;2022-11-15T10:49:22;20.83;;;13.50;;
65636;SDS011;52327;42.622;23.316;2022-11-15T10:51:57;24.98;;;13.23;;
65636;SDS011;52327;42.622;23.316;2022-11-15T10:54:39;20.65;;;13.30;;
65636;SDS011;52327;42.622;23.316;2022-11-15T10:57:13;29.17;;;13.52;;
65636;SDS011;52327;42.622;23.316;2022-11-15T10:59:42;21.90;;;11.02;;
65636;SDS011;52327;42.622;23.316;2022-11-15T11:04:59;19.92;;;13.05;;
65636;SDS011;52327;42.622;23.316;2022-11-15T11:07:26;20.50;;;13.77;;
65636;SDS011;52327;42.622;23.316;2022-11-15T11:10:02;26.75;;;13.63;;
65636;SDS011;52327;42.622;23.316;2022-11-15T11:12:42;21.70;;;14.52;;
65636;SDS011;52327;42.622;23.316;2022-11-15T11:15:12;19.48;;;12.80;;
65636;SDS011;52327;42.622;23.316;2022-11-15T11:17:46;27.88;;;14.73;;
65636;SDS011;52327;42.622;23.316;2022-11-15T11:20:28;24.05;;;13.57;;
65636;SDS011;52327;42.622;23.316;2022-11-15T11:42:11;16.15;;;9.25;;
65636;SDS011;52327;42.622;23.316;2022-11-15T11:49:54;18.42;;;11.65;;
65636;SDS011;52327;42.622;23.316;2022-11-15T11:54:59;27.65;;;13.93;;
65636;SDS011;52327;42.622;23.316;2022-11-15T12:00:38;17.63;;;11.68;;
65636;SDS011;52327;42.622;23.316;2022-11-15T12:06:10;21.08;;;13.35;;
65636;SDS011;52327;42.622;23.316;2022-11-15T12:15:00;23.10;;;12.10;;
65636;SDS011;52327;42.622;23.316;2022-11-15T12:17:07;21.58;;;12.80;;
65636;SDS011;52327;42.622;23.316;2022-11-15T12:19:35;23.90;;;10.82;;
65636;SDS011;52327;42.622;23.316;2022-11-15T12:22:02;24.90;;;12.43;;
65636;SDS011;52327;42.622;23.316;2022-11-15T12:27:40;17.50;;;9.68;;
65636;SDS011;52327;42.622;23.316;2022-11-15T12:30:15;19.27;;;12.00;;
65636;SDS011;52327;42.622;23.316;2022-11-15T12:32:58;18.80;;;12.85;;
65636;SDS011;52327;42.622;23.316;2022-11-15T12:35:35;17.73;;;9.52;;
65636;SDS011;52327;42.622;23.316;2022-11-15T12:38:04;21.13;;;11.10;;
65636;SDS011;52327;42.622;23.316;2022-11-15T12:40:35;24.08;;;12.43;;
65636;SDS011;52327;42.622;23.316;2022-11-15T12:45:41;17.65;;;10.15;;
65636;SDS011;52327;42.622;23.316;2022-11-15T13:11:51;16.42;;;9.73;;
65636;SDS011;52327;42.622;23.316;2022-11-15T13:17:22;15.18;;;9.60;;
65636;SDS011;52327;42.622;23.316;2022-11-15T13:22:18;20.08;;;11.90;;
65636;SDS011;52327;42.622;23.316;2022-11-15T13:25:02;19.60;;;10.35;;
65636;SDS011;52327;42.622;23.316;2022-11-15T13:27:28;19.42;;;9.65;;
65636;SDS011;52327;42.622;23.316;2022-11-15T13:29:54;23.98;;;10.70;;
65636;SDS011;52327;42.622;23.316;2022-11-15T13:32:20;19.70;;;10.27;;
65636;SDS011;52327;42.622;23.316;2022-11-15T13:34:47;16.20;;;9.93;;
65636;SDS011;52327;42.622;23.316;2022-11-15T13:39:46;16.25;;;10.40;;
65636;SDS011;52327;42.622;23.316;2022-11-15T13:42:16;14.27;;;8.48;;
65636;SDS011;52327;42.622;23.316;2022-11-15T13:44:57;22.08;;;10.02;;
65636;SDS011;52327;42.622;23.316;2022-11-15T13:47:27;28.02;;;12.38;;
65636;SDS011;52327;42.622;23.316;2022-11-15T13:49:56;24.10;;;9.88;;
65636;SDS011;52327;42.622;23.316;2022-11-15T13:52:22;22.83;;;11.43;;
65636;SDS011;52327;42.622;23.316;2022-11-15T14:00:00;18.77;;;10.85;;
65636;SDS011;52327;42.622;23.316;2022-11-15T14:02:29;16.40;;;10.95;;
65636;SDS011;52327;42.622;23.316;2022-11-15T14:07:56;13.63;;;8.52;;
65636;SDS011;52327;42.622;23.316;2022-11-15T14:10:32;18.88;;;11.55;;
65636;SDS011;52327;42.622;23.316;2022-11-15T14:13:00;14.18;;;9.90;;
65636;SDS011;52327;42.622;23.316;2022-11-15T14:15:36;17.88;;;8.45;;
65636;SDS011;52327;42.622;23.316;2022-11-15T14:18:03;14.57;;;9.43;;
65636;SDS011;52327;42.622;23.316;2022-11-15T14:22:57;20.52;;;11.55;;
65636;SDS011;52327;42.622;23.316;2022-11-15T14:25:25;21.23;;;12.32;;
65636;SDS011;52327;42.622;23.316;2022-11-15T14:30:44;13.45;;;7.47;;
65636;SDS011;52327;42.622;23.316;2022-11-15T14:33:26;10.40;;;6.50;;
65636;SDS011;52327;42.622;23.316;2022-11-15T14:36:12;8.75;;;5.18;;
65636;SDS011;52327;42.622;23.316;2022-11-15T14:38:43;6.45;;;4.07;;
65636;SDS011;52327;42.622;23.316;2022-11-15T14:41:24;5.53;;;3.80;;
65636;SDS011;52327;42.622;23.316;2022-11-15T14:46:49;4.38;;;2.80;;
65636;SDS011;52327;42.622;23.316;2022-11-15T14:49:17;8.88;;;5.38;;
65636;SDS011;52327;42.622;23.316;2022-11-15T14:51:46;5.07;;;3.72;;
65636;SDS011;52327;42.622;23.316;2022-11-15T14:54:11;8.00;;;3.40;;
65636;SDS011;52327;42.622;23.316;2022-11-15T14:56:37;4.97;;;3.05;;
65636;SDS011;52327;42.622;23.316;2022-11-15T14:59:02;6.57;;;3.63;;
65636;SDS011;52327;42.622;23.316;2022-11-15T15:01:28;4.20;;;3.08;;
65636;SDS011;52327;42.622;23.316;2022-11-15T15:03:53;5.40;;;3.55;;
65636;SDS011;52327;42.622;23.316;2022-11-15T15:06:22;6.00;;;4.30;;
65636;SDS011;52327;42.622;23.316;2022-11-15T15:08:48;5.82;;;3.60;;
65636;SDS011;52327;42.622;23.316;2022-11-15T15:11:22;6.45;;;4.45;;
65636;SDS011;52327;42.622;23.316;2022-11-15T15:13:50;7.38;;;4.43;;
65636;SDS011;52327;42.622;23.316;2022-11-15T15:16:17;4.57;;;3.65;;
65636;SDS011;52327;42.622;23.316;2022-11-15T15:18:42;4.82;;;3.58;;
65636;SDS011;52327;42.622;23.316;2022-11-15T15:21:16;8.63;;;4.18;;
65636;SDS011;52327;42.622;23.316;2022-11-15T15:23:45;9.35;;;5.68;;
65636;SDS011;52327;42.622;23.316;2022-11-15T15:26:10;9.57;;;6.50;;
65636;SDS011;52327;42.622;23.316;2022-11-15T15:28:37;10.27;;;5.38;;
65636;SDS011;52327;42.622;23.316;2022-11-15T15:31:04;9.43;;;6.40;;
65636;SDS011;52327;42.622;23.316;2022-11-15T15:33:30;7.43;;;5.10;;
65636;SDS011;52327;42.622;23.316;2022-11-15T15:35:56;10.18;;;5.57;;
65636;SDS011;52327;42.622;23.316;2022-11-15T15:38:21;9.25;;;7.65;;
65636;SDS011;52327;42.622;23.316;2022-11-15T15:40:47;5.53;;;3.85;;
65636;SDS011;52327;42.622;23.316;2022-11-15T15:43:13;9.10;;;4.13;;
65636;SDS011;52327;42.622;23.316;2022-11-15T15:45:39;4.88;;;3.70;;
65636;SDS011;52327;42.622;23.316;2022-11-15T15:48:05;3.05;;;2.45;;
65636;SDS011;52327;42.622;23.316;2022-11-15T15:50:36;7.20;;;3.97;;
65636;SDS011;52327;42.622;23.316;2022-11-15T15:53:02;3.55;;;2.85;;
65636;SDS011;52327;42.622;23.316;2022-11-15T15:55:28;3.83;;;1.80;;
65636;SDS011;52327;42.622;23.316;2022-11-15T15:57:54;3.30;;;1.77;;
65636;SDS011;52327;42.622;23.316;2022-11-15T16:00:20;4.10;;;3.03;;
65636;SDS011;52327;42.622;23.316;2022-11-15T16:02:48;3.25;;;2.40;;
65636;SDS011;52327;42.622;23.316;2022-11-15T16:05:14;3.08;;;2.53;;
65636;SDS011;52327;42.622;23.316;2022-11-15T16:07:40;4.25;;;3.38;;
65636;SDS011;52327;42.622;23.316;2022-11-15T16:10:27;2.58;;;2.05;;
65636;SDS011;52327;42.622;23.316;2022-11-15T16:12:54;2.17;;;1.65;;
65636;SDS011;52327;42.622;23.316;2022-11-15T16:15:21;3.70;;;2.60;;
65636;SDS011;52327;42.622;23.316;2022-11-15T16:17:49;3.60;;;2.67;;
65636;SDS011;52327;42.622;23.316;2022-11-15T16:20:38;9.43;;;3.03;;
65636;SDS011;52327;42.622;23.316;2022-11-15T16:23:08;2.85;;;2.38;;
65636;SDS011;52327;42.622;23.316;2022-11-15T16:25:40;5.18;;;2.72;;
65636;SDS011;52327;42.622;23.316;2022-11-15T16:28:16;3.00;;;1.83;;
65636;SDS011;52327;42.622;23.316;2022-11-15T16:30:42;8.45;;;5.25;;
65636;SDS011;52327;42.622;23.316;2022-11-15T16:33:07;8.73;;;3.25;;
65636;SDS011;52327;42.622;23.316;2022-11-15T16:35:33;4.78;;;3.70;;
65636;SDS011;52327;42.622;23.316;2022-11-15T16:37:58;6.07;;;4.32;;
65636;SDS011;52327;42.622;23.316;2022-11-15T16:42:54;21.67;;;13.70;;
65636;SDS011;52327;42.622;23.316;2022-11-15T16:45:21;27.40;;;17.85;;
65636;SDS011;52327;42.622;23.316;2022-11-15T16:47:46;23.63;;;15.93;;
65636;SDS011;52327;42.622;23.316;2022-11-15T16:50:31;19.00;;;11.13;;
65636;SDS011;52327;42.622;23.316;2022-11-15T16:53:03;9.90;;;7.30;;
65636;SDS011;52327;42.622;23.316;2022-11-15T16:55:29;8.63;;;5.22;;
65636;SDS011;52327;42.622;23.316;2022-11-15T16:57:55;12.23;;;7.03;;
65636;SDS011;52327;42.622;23.316;2022-11-15T17:00:23;7.77;;;5.37;;
65636;SDS011;52327;42.622;23.316;2022-11-15T17:02:49;9.48;;;5.78;;
65636;SDS011;52327;42.622;23.316;2022-11-15T17:05:16;13.25;;;8.10;;
65636;SDS011;52327;42.622;23.316;2022-11-15T17:07:45;14.35;;;7.15;;
65636;SDS011;52327;42.622;23.316;2022-11-15T17:10:19;5.43;;;4.57;;
65636;SDS011;52327;42.622;23.316;2022-11-15T17:12:45;10.32;;;7.82;;
65636;SDS011;52327;42.622;23.316;2022-11-15T17:15:11;9.63;;;6.68;;
65636;SDS011;52327;42.622;23.316;2022-11-15T17:17:37;11.07;;;7.07;;
65636;SDS011;52327;42.622;23.316;2022-11-15T17:20:04;8.85;;;5.60;;